Data for 10/08/2018

Time Sea-Level Adjusted Pressure Absolute Pressure Temperature Relative Humidity Dew Point   
(mb) (inHg) (mb) (inHg) (C) (F) (%) (C) (F)
00:05 1019 30.09 848 25.04 1.9 35.5 89 0.3 32.5
00:10 1019 30.09 848 25.04 1.9 35.4 89 0.3 32.5
00:15 1019 30.09 848 25.04 1.9 35.5 88 0.2 32.4
00:20 1019 30.09 848 25.04 2 35.5 88 0.1 32.3
00:25 1019 30.09 848 25.04 1.9 35.5 88 0.1 32.2
00:30 1019 30.09 848 25.04 1.8 35.2 88 -0 32
00:35 1019 30.09 848 25.04 1.8 35.2 88 -0 32
00:40 1019 30.09 848 25.04 1.8 35.2 88 -0 32
00:45 1019 30.09 848 25.04 1.7 35.1 88 -0.1 31.9
00:50 1019 30.09 848 25.04 1.6 34.9 88 -0.2 31.6
00:55 1019 30.09 848 25.04 1.4 34.4 88 -0.4 31.3
01:00 1019 30.09 848 25.04 1.3 34.3 89 -0.4 31.2
01:05 1019 30.09 848 25.04 1.2 34.2 88 -0.5 31.1
01:10 1019 30.09 848 25.04 1.2 34.2 88 -0.5 31.1
01:15 1019 30.09 848 25.04 1.2 34.1 88 -0.5 31
01:20 1019 30.09 848 25.04 1.1 34 89 -0.6 31
01:25 1019 30.09 848 25.04 1.1 34 88 -0.6 30.9
01:30 1019 30.09 848 25.04 1.2 34.1 88 -0.7 30.8
01:35 1019 30.09 848 25.04 1 33.9 88 -0.8 30.6
01:40 1019 30.09 848 25.04 1 33.8 88 -0.7 30.7
01:45 1019 30.09 848 25.04 1.2 34.1 88 -0.6 30.9
01:50 1019 30.09 848 25.04 1.3 34.4 87 -0.6 31
01:55 1019 30.09 848 25.04 1.4 34.5 87 -0.6 31
02:00 1019 30.09 848 25.04 1.5 34.6 87 -0.5 31
02:05 1019 30.09 848 25.04 1.5 34.7 86 -0.5 31.1
02:10 1019 30.09 848 25.04 1.4 34.6 87 -0.5 31.1
02:15 1019 30.09 848 25.04 1.3 34.3 88 -0.5 31.1
02:20 1019 30.09 848 25.04 1.1 34 88 -0.6 31
02:25 1019 30.09 848 25.04 1.2 34.1 88 -0.6 30.9
02:30 1019 30.09 848 25.04 1.4 34.5 87 -0.6 30.9
02:35 1019 30.09 848 25.04 1.6 34.8 85 -0.6 30.8
02:40 1019 30.09 848 25.04 1.7 35.1 85 -0.5 31.1
02:45 1019 30.09 848 25.04 1.5 34.8 86 -0.5 31.1
02:50 1019 30.09 848 25.04 1.4 34.6 87 -0.5 31
02:55 1019 30.09 848 25.04 1.3 34.4 87 -0.6 31
03:00 1019 30.09 848 25.04 1.4 34.5 87 -0.6 30.9
03:05 1019 30.09 848 25.04 1.3 34.3 87 -0.6 30.9
03:10 1019 30.09 848 25.04 0.9 33.7 89 -0.8 30.6
03:15 1019 30.09 848 25.04 0.9 33.7 88 -0.8 30.6
03:20 1019 30.09 848 25.04 1 33.7 89 -0.7 30.7
03:25 1019 30.09 848 25.04 1 33.9 88 -0.7 30.8
03:30 1019 30.09 848 25.04 1.1 34 88 -0.6 30.8
03:35 1019 30.09 848 25.04 1.1 34.1 88 -0.6 30.8
03:40 1019 30.09 848 25.04 1.1 34 88 -0.7 30.7
03:45 1019 30.09 848 25.04 1.1 33.9 88 -0.7 30.8
03:50 1019 30.09 848 25.04 1.3 34.4 87 -0.7 30.8
03:55 1019 30.09 848 25.04 1.2 34.2 87 -0.7 30.8
04:00 1019 30.09 848 25.04 1 33.8 88 -0.7 30.7
04:05 1019 30.09 848 25.04 1.1 34 87 -0.7 30.7
04:10 1019 30.09 848 25.04 1.3 34.3 87 -0.6 30.8
04:15 1019 30.09 848 25.04 1.4 34.6 86 -0.7 30.8
04:20 1019 30.09 848 25.04 1.5 34.7 86 -0.6 30.8
04:25 1018 30.06 848 25.04 1.5 34.7 86 -0.6 30.9
04:30 1019 30.09 848 25.04 1.5 34.8 86 -0.6 30.9
04:35 1019 30.09 848 25.04 1.8 35.2 84 -0.6 30.9
04:40 1019 30.09 848 25.04 1.7 35.1 85 -0.5 31.1
04:45 1019 30.09 848 25.04 1.7 35.1 85 -0.6 30.9
04:50 1019 30.09 848 25.04 1.7 35.1 84 -0.6 30.8
04:55 1019 30.09 848 25.04 1.7 35 85 -0.6 30.9
05:00 1019 30.09 848 25.04 1.5 34.7 86 -0.7 30.8
05:05 1019 30.09 848 25.04 1.2 34.1 87 -0.8 30.6
05:10 1019 30.09 848 25.04 1 33.8 87 -0.9 30.4
05:15 1019 30.09 848 25.04 1.1 33.9 87 -0.8 30.5
05:20 1019 30.09 848 25.04 1.1 34 87 -0.8 30.5
05:25 1019 30.09 848 25.04 1.2 34.1 87 -0.8 30.6
05:30 1019 30.09 848 25.04 1.3 34.3 86 -0.8 30.6
05:35 1019 30.09 848 25.04 1.4 34.6 85 -0.8 30.6
05:40 1019 30.09 848 25.04 1.4 34.5 85 -0.8 30.5
05:45 1019 30.09 848 25.04 1.4 34.4 85 -0.9 30.4
05:50 1019 30.09 848 25.04 1.1 34 86 -1 30.3
05:55 1019 30.09 848 25.04 1 33.7 87 -1 30.3
06:00 1019 30.09 848 25.04 0.8 33.4 88 -1 30.2
06:05 1019 30.09 848 25.04 0.7 33.2 89 -1 30.2
06:10 1019 30.09 848 25.04 0.7 33.2 90 -0.8 30.5
06:15 1019 30.09 848 25.04 0.8 33.4 89 -0.8 30.6
06:20 1019 30.09 848 25.04 0.7 33.2 89 -0.9 30.4
06:25 1019 30.09 848 25.04 0.6 33.1 90 -0.9 30.4
06:30 1019 30.09 848 25.04 0.7 33.2 90 -0.7 30.7
06:35 1019 30.09 848 25.04 1 33.8 90 -0.5 31.1
06:40 1019 30.09 848 25.04 1 33.9 89 -0.6 30.9
06:45 1019 30.09 848 25.04 1 33.9 88 -0.7 30.8
06:50 1019 30.09 849 25.07 1 33.8 88 -0.7 30.8
06:55 1019 30.09 849 25.07 0.9 33.7 89 -0.7 30.7
07:00 1019 30.09 849 25.07 1 33.8 89 -0.6 31
07:05 1019 30.09 849 25.07 1.6 34.8 88 -0.2 31.6
07:10 1019 30.09 849 25.07 2.3 36.1 85 0.1 32.1
07:15 1019 30.09 848 25.04 2.8 37.1 81 -0.2 31.7
07:20 1019 30.09 849 25.07 3.2 37.7 79 -0.1 31.8
07:25 1019 30.09 849 25.07 3.5 38.3 77 -0.2 31.6
07:30 1019 30.09 849 25.07 3.5 38.2 76 -0.4 31.3
07:35 1019 30.09 849 25.07 3.4 38.1 77 -0.3 31.4
07:40 1019 30.09 849 25.07 3.3 38 76 -0.5 31.1
07:45 1019 30.09 849 25.07 3.7 38.6 75 -0.4 31.2
07:50 1020 30.12 849 25.07 3.7 38.7 76 -0.2 31.7
07:55 1020 30.12 849 25.07 3.7 38.7 75 -0.4 31.3
08:00 1020 30.12 849 25.07 3 37.4 79 -0.3 31.5
08:05 1020 30.12 849 25.07 2.6 36.8 81 -0.3 31.4
08:10 1020 30.12 849 25.07 2.8 37 80 -0.3 31.4
08:15 1020 30.12 849 25.07 2.9 37.3 79 -0.3 31.5
08:20 1020 30.12 849 25.07 3.1 37.5 79 -0.2 31.6
08:25 1020 30.12 849 25.07 3.1 37.5 80 -0.1 31.8
08:30 1020 30.12 849 25.07 3 37.4 80 -0.1 31.7
08:35 1020 30.12 849 25.07 3 37.5 81 0 32.1
08:40 1020 30.12 849 25.07 3.2 37.7 79 -0.1 31.9
08:45 1020 30.12 849 25.07 3.5 38.2 79 0.1 32.2
08:50 1020 30.12 849 25.07 3.3 37.9 80 0.1 32.2
08:55 1020 30.12 849 25.07 2.9 37.2 83 0.2 32.4
09:00 1020 30.12 849 25.07 3.1 37.6 82 0.2 32.4
09:05 1020 30.12 849 25.07 3.4 38.1 79 0.1 32.2
09:10 1020 30.12 849 25.07 3.1 37.7 81 0.1 32.2
09:15 1020 30.12 849 25.07 3.2 37.7 81 0.3 32.5
09:20 1020 30.12 849 25.07 3.7 38.6 80 0.5 33
09:25 1020 30.12 849 25.07 3.7 38.7 78 0.2 32.4
09:30 1020 30.12 849 25.07 3.4 38.2 80 0.3 32.5
09:35 1020 30.12 849 25.07 3.5 38.4 78 0 32
09:40 1020 30.12 849 25.07 3.8 38.9 77 0.2 32.3
09:45 1020 30.12 849 25.07 3.8 38.8 77 0.2 32.3
09:50 1020 30.12 849 25.07 3.6 38.4 78 0.1 32.2
09:55 1020 30.12 849 25.07 3.6 38.4 79 0.3 32.5
10:00 1020 30.12 849 25.07 3.9 38.9 78 0.4 32.7
10:05 1020 30.12 849 25.07 4 39.3 78 0.6 33
10:10 1020 30.12 849 25.07 4 39.2 78 0.4 32.8
10:15 1020 30.12 849 25.07 4 39.1 77 0.3 32.6
10:20 1019 30.09 849 25.07 4.1 39.4 76 0.2 32.3
10:25 1019 30.09 849 25.07 4.4 39.9 77 0.8 33.4
10:30 1019 30.09 848 25.04 4.8 40.6 74 0.5 32.9
10:35 1019 30.09 848 25.04 5.1 41.2 70 0 32.1
10:40 1019 30.09 848 25.04 5.2 41.3 71 0.4 32.7
10:45 1019 30.09 848 25.04 5.1 41.3 69 -0 32
10:50 1019 30.09 848 25.04 5.6 42.1 68 0.1 32.2
10:55 1019 30.09 848 25.04 6.3 43.3 67 0.7 33.3
11:00 1019 30.09 848 25.04 6.6 43.9 64 0.3 32.5
11:05 1019 30.09 848 25.04 6.5 43.7 64 0.3 32.5
11:10 1019 30.09 848 25.04 6.9 44.5 61 -0.1 31.8
11:15 1019 30.09 848 25.04 7 44.6 60 -0.2 31.6
11:20 1019 30.09 848 25.04 7.6 45.7 58 -0.2 31.7
11:25 1019 30.09 848 25.04 7.7 45.9 59 0.3 32.5
11:30 1019 30.09 848 25.04 8.7 47.7 54 -0.1 31.8
11:35 1019 30.09 848 25.04 9.1 48.4 52 -0.2 31.6
11:40 1019 30.09 848 25.04 8.7 47.6 54 -0.1 31.8
11:45 1019 30.09 848 25.04 8.2 46.8 55 -0.3 31.5
11:50 1019 30.09 848 25.04 8 46.5 54 -0.6 31
11:55 1019 30.09 848 25.04 7.9 46.1 54 -0.8 30.5
12:00 1019 30.09 848 25.04 6.9 44.5 56 -1.3 29.7
12:05 1018 30.06 848 25.04 7.5 45.5 51 -2 28.5
12:10 1018 30.06 848 25.04 7.8 46 54 -0.9 30.4
12:15 1018 30.06 847 25.01 7.9 46.1 54 -0.9 30.4
12:20 1018 30.06 847 25.01 8.6 47.4 50 -1.3 29.7
12:25 1018 30.06 847 25.01 9.1 48.4 50 -0.9 30.4
12:30 1018 30.06 847 25.01 8.3 46.9 48 -2 28.5
12:35 1018 30.06 847 25.01 9.2 48.6 47 -1.4 29.5
12:40 1018 30.06 847 25.01 8.4 47.2 50 -1.5 29.4
12:45 1018 30.06 847 25.01 7.9 46.3 52 -1.2 29.8
12:50 1018 30.06 847 25.01 7.5 45.5 56 -0.8 30.6
12:55 1018 30.06 847 25.01 7.1 44.8 55 -1.3 29.6
13:00 1018 30.06 847 25.01 7.3 45.1 56 -0.9 30.3
13:05 1018 30.06 847 25.01 7.4 45.3 57 -0.6 30.9
13:10 1018 30.06 847 25.01 7.5 45.5 57 -0.5 31.1
13:15 1018 30.06 847 25.01 8.2 46.7 54 -0.4 31.2
13:20 1018 30.06 847 25.01 8.4 47.2 52 -0.8 30.5
13:25 1018 30.06 847 25.01 8.3 46.9 53 -0.8 30.5
13:30 1017 30.03 847 25.01 7.8 46 55 -0.8 30.6
13:35 1017 30.03 847 25.01 8 46.5 53 -1 30.1
13:40 1017 30.03 847 25.01 8.7 47.7 52 -0.6 30.9
13:45 1017 30.03 847 25.01 8.6 47.5 50 -1.2 29.8
13:50 1017 30.03 847 25.01 9.1 48.4 50 -0.6 30.9
13:55 1017 30.03 846 24.98 8.8 47.8 45 -2.5 27.5
14:00 1017 30.03 846 24.98 8.8 47.8 47 -1.8 28.7
14:05 1017 30.03 846 24.98 8.8 47.8 43 -3 26.7
14:10 1017 30.03 846 24.98 9.2 48.5 41 -3.3 26.1
14:15 1017 30.03 846 24.98 9.1 48.3 43 -2.7 27.1
14:20 1017 30.03 846 24.98 9.2 48.5 43 -2.7 27.1
14:25 1017 30.03 846 24.98 9.5 49.1 41 -3 26.6
14:30 1017 30.03 846 24.98 9.6 49.3 43 -2.3 27.8
14:35 1017 30.03 846 24.98 9.8 49.6 43 -2.1 28.2
14:40 1017 30.03 846 24.98 9.7 49.5 41 -3 26.7
14:45 1017 30.03 846 24.98 10.1 50.1 37 -3.8 25.2
14:50 1017 30.03 846 24.98 9.9 49.8 37 -4.2 24.4
14:55 1017 30.03 846 24.98 9.7 49.5 38 -3.9 25
15:00 1017 30.03 846 24.98 9.1 48.4 40 -3.8 25.2
15:05 1017 30.03 846 24.98 9.5 49.2 38 -4 24.7
15:10 1017 30.03 846 24.98 9.8 49.6 39 -3.5 25.6
15:15 1017 30.03 846 24.98 10.3 50.6 38 -3.5 25.8
15:20 1017 30.03 846 24.98 10.3 50.5 36 -4.1 24.6
15:25 1017 30.03 846 24.98 9.9 49.9 39 -3.2 26.2
15:30 1017 30.03 846 24.98 9.7 49.4 42 -2.5 27.6
15:35 1017 30.03 846 24.98 9.2 48.5 44 -2.4 27.6
15:40 1017 30.03 846 24.98 9.1 48.4 44 -2.3 27.8
15:45 1017 30.03 846 24.98 9.1 48.5 43 -2.6 27.2
15:50 1017 30.03 846 24.98 9.6 49.3 43 -2.3 27.9
15:55 1017 30.03 846 24.98 9.9 49.7 41 -2.6 27.3
16:00 1017 30.03 846 24.98 9.5 49.1 43 -2.4 27.6
16:05 1017 30.03 846 24.98 9.1 48.5 44 -2.6 27.4
16:10 1017 30.03 846 24.98 8.7 47.6 43 -3.2 26.3
16:15 1017 30.03 846 24.98 8.4 47.1 44 -3.2 26.2
16:20 1017 30.03 846 24.98 8.3 46.9 45 -2.9 26.7
16:25 1017 30.03 846 24.98 8.4 47 45 -2.8 26.9
16:30 1017 30.03 846 24.98 8.6 47.5 46 -2.3 27.9
16:35 1017 30.03 846 24.98 8.3 46.9 47 -2.3 27.8
16:40 1017 30.03 846 24.98 8.3 47 47 -2.4 27.6
16:45 1017 30.03 846 24.98 8.1 46.6 45 -3.2 26.3
16:50 1017 30.03 846 24.98 7.9 46.1 48 -2.6 27.4
16:55 1017 30.03 846 24.98 7.7 45.8 49 -2.3 27.8
17:00 1017 30.03 846 24.98 7.5 45.5 50 -2.1 28.1
17:05 1017 30.03 846 24.98 7.4 45.3 51 -2.2 28.1
17:10 1017 30.03 846 24.98 7.3 45.1 52 -2.1 28.3
17:15 1017 30.03 846 24.98 7.2 44.9 51 -2.4 27.7
17:20 1017 30.03 846 24.98 7.1 44.7 52 -2.2 28.1
17:25 1017 30.03 846 24.98 6.9 44.5 52 -2.1 28.2
17:30 1017 30.03 846 24.98 6.8 44.2 52 -2.4 27.8
17:35 1017 30.03 846 24.98 6.7 44.1 52 -2.6 27.4
17:40 1017 30.03 846 24.98 6.6 43.8 51 -2.8 27
17:45 1017 30.03 846 24.98 6.5 43.6 50 -3.1 26.4
17:50 1017 30.03 846 24.98 6.3 43.4 51 -3.1 26.5
17:55 1017 30.03 846 24.98 6.2 43.2 52 -2.8 27
18:00 1017 30.03 846 24.98 6.1 42.9 53 -2.7 27.2
18:05 1017 30.03 846 24.98 6 42.7 54 -2.5 27.4
18:10 1017 30.03 846 24.98 5.9 42.6 56 -2.3 27.8
18:15 1017 30.03 846 24.98 5.8 42.4 57 -2.2 28.1
18:20 1017 30.03 846 24.98 5.6 42.1 58 -2.1 28.3
18:25 1017 30.03 846 24.98 5.5 41.8 59 -1.9 28.5
18:30 1017 30.03 846 24.98 5.4 41.7 60 -1.8 28.8
18:35 1017 30.03 846 24.98 5.3 41.5 61 -1.7 29
18:40 1017 30.03 846 24.98 5.1 41.2 62 -1.5 29.4
18:45 1017 30.03 846 24.98 4.9 40.8 64 -1.4 29.5
18:50 1017 30.03 846 24.98 4.8 40.6 64 -1.5 29.3
18:55 1017 30.03 846 24.98 4.8 40.6 63 -1.5 29.2
19:00 1017 30.03 846 24.98 4.8 40.6 64 -1.5 29.3
19:05 1017 30.03 846 24.98 4.7 40.5 64 -1.5 29.3
19:10 1017 30.03 846 24.98 4.7 40.5 64 -1.5 29.2
19:15 1017 30.03 846 24.98 4.7 40.5 64 -1.4 29.5
19:20 1017 30.03 846 24.98 4.7 40.5 64 -1.4 29.4
19:25 1017 30.03 846 24.98 4.7 40.5 65 -1.3 29.6
19:30 1017 30.03 846 24.98 4.7 40.5 64 -1.4 29.4
19:35 1017 30.03 846 24.98 4.7 40.4 65 -1.3 29.7
19:40 1017 30.03 846 24.98 4.5 40.2 66 -1.3 29.6
19:45 1017 30.03 846 24.98 4.5 40.1 66 -1.3 29.7
19:50 1017 30.03 846 24.98 4.4 39.9 66 -1.3 29.6
19:55 1017 30.03 846 24.98 4.5 40.1 66 -1.4 29.5
20:00 1017 30.03 846 24.98 4.5 40 66 -1.3 29.6
20:05 1017 30.03 846 24.98 4.4 40 66 -1.3 29.7
20:10 1017 30.03 846 24.98 4.4 40 66 -1.3 29.6
20:15 1017 30.03 846 24.98 4.4 39.9 66 -1.3 29.6
20:20 1017 30.03 846 24.98 4.3 39.8 67 -1.2 29.8
20:25 1017 30.03 846 24.98 4.2 39.6 68 -1.2 29.8
20:30 1017 30.03 846 24.98 4.2 39.5 68 -1.2 29.9
20:35 1017 30.03 846 24.98 4.1 39.3 68 -1.3 29.7
20:40 1017 30.03 846 24.98 4.1 39.3 68 -1.3 29.6
20:45 1017 30.03 846 24.98 4.1 39.4 68 -1.2 29.8
20:50 1017 30.03 846 24.98 4 39.2 69 -1.2 29.9
20:55 1017 30.03 846 24.98 3.9 39.1 68 -1.3 29.6
21:00 1017 30.03 846 24.98 3.9 39.1 69 -1.2 29.9
21:05 1017 30.03 846 24.98 3.9 39 70 -1.2 29.9
21:10 1017 30.03 846 24.98 3.8 38.8 70 -1.2 29.9
21:15 1017 30.03 846 24.98 3.7 38.7 70 -1.2 29.9
21:20 1017 30.03 846 24.98 3.7 38.7 71 -1.1 30.1
21:25 1017 30.03 846 24.98 3.7 38.6 71 -1.1 30
21:30 1017 30.03 846 24.98 3.7 38.7 70 -1.3 29.7
21:35 1017 30.03 846 24.98 3.8 38.8 70 -1.1 30
21:40 1017 30.03 846 24.98 3.8 38.8 70 -1.3 29.7
21:45 1017 30.03 846 24.98 3.7 38.7 71 -1 30.1
21:50 1017 30.03 846 24.98 3.6 38.5 72 -1 30.1
21:55 1017 30.03 846 24.98 3.6 38.4 71 -1.1 29.9
22:00 1017 30.03 846 24.98 3.7 38.6 71 -1.1 30.1
22:05 1017 30.03 846 24.98 3.7 38.7 71 -1.1 30.1
22:10 1017 30.03 846 24.98 3.7 38.7 71 -1.1 30
22:15 1017 30.03 846 24.98 3.7 38.7 71 -1.1 30
22:20 1017 30.03 846 24.98 3.7 38.7 71 -1 30.1
22:25 1017 30.03 846 24.98 3.6 38.5 72 -1 30.2
22:30 1017 30.03 846 24.98 3.4 38.2 73 -1 30.2
22:35 1017 30.03 846 24.98 3.3 38 74 -1 30.3
22:40 1017 30.03 846 24.98 3.2 37.7 74 -1 30.2
22:45 1017 30.03 846 24.98 3.2 37.7 74 -1 30.2
22:50 1017 30.03 846 24.98 3.2 37.8 74 -1.1 30.1
22:55 1016 30 846 24.98 3.3 37.9 73 -1.1 30
23:00 1016 30 846 24.98 3.4 38 72 -1.2 29.9
23:05 1016 30 846 24.98 3.4 38.1 72 -1.1 30
23:10 1016 30 846 24.98 3.3 38 72 -1.1 29.9
23:15 1016 30 846 24.98 3.4 38.1 72 -1.2 29.8
23:20 1016 30 845 24.95 3.4 38.1 72 -1.2 29.9
23:25 1016 30 845 24.95 3.3 37.9 73 -1.1 30
23:30 1016 30 845 24.95 3.2 37.8 73 -1.2 29.9
23:35 1016 30 845 24.95 3.1 37.6 74 -1.1 30.1
23:40 1016 30 845 24.95 3 37.5 74 -1.1 30.1
23:45 1016 30 845 24.95 3 37.5 74 -1.2 29.9
23:50 1016 30 845 24.95 3.1 37.5 74 -1.1 30
23:55 1016 30 845 24.95 3.1 37.5 74 -1.1 30
24:00 1016 30 845 24.95 3 37.4 75 -1 30.2